| time (UTC) | temp F | wind direction | speed MPH | gust MPH | rain 1hr in | rain 24hr in | rain mn in | humidity % | barometer mb |
| 20260905021600 | 84 | 175 | 6.0 | 10.0 | 0.00 | 0.03 | 0.02 | 83 | 1013.7 |
| 20260905020059 | 84 | 172 | 7.0 | 9.0 | 0.00 | 0.03 | 0.02 | 83 | 1013.4 |
| 20260905014604 | 85 | 177 | 7.0 | 10.0 | 0.00 | 0.03 | 0.02 | 83 | 1013.2 |
| 20260905013056 | 85 | 179 | 7.0 | 10.0 | 0.00 | 0.03 | 0.02 | 81 | 1012.9 |
| 20260905011604 | 85 | 196 | 7.0 | 10.0 | 0.00 | 0.03 | 0.02 | 79 | 1012.8 |
| 20260905010106 | 85 | 225 | 7.0 | 10.0 | 0.00 | 0.03 | 0.02 | 80 | 1012.6 |
| 20260905004602 | 87 | 205 | 8.0 | 10.0 | 0.00 | 0.03 | 0.02 | 78 | 1012.5 |
| 20260905003059 | 87 | 150 | 5.0 | 9.0 | 0.00 | 0.03 | 0.02 | 75 | 1012.5 |
| 20260905001604 | 87 | 156 | 2.0 | 5.0 | 0.00 | 0.03 | 0.02 | 72 | 1012.7 |
| 20260905000110 | 88 | 126 | 1.0 | 4.0 | 0.00 | 0.03 | 0.02 | 71 | 1012.8 |
| 20260904234600 | 88 | 142 | 2.0 | 6.0 | 0.00 | 0.03 | 0.02 | 69 | 1012.5 |
| 20260904233119 | 88 | 177 | 5.0 | 8.0 | 0.00 | 0.03 | 0.02 | 71 | 1012.6 |
| 20260904231606 | 88 | 198 | 7.0 | 10.0 | 0.00 | 0.03 | 0.02 | 70 | 1012.8 |
| 20260904230100 | 89 | 193 | 8.0 | 11.0 | 0.00 | 0.03 | 0.02 | 68 | 1012.7 |
| 20260904224607 | 89 | 192 | 7.0 | 10.0 | 0.00 | 0.03 | 0.02 | 71 | 1012.5 |
| 20260904223131 | 89 | 197 | 7.0 | 9.0 | 0.00 | 0.03 | 0.02 | 73 | 1012.5 |
| 20260904221600 | 88 | 194 | 7.0 | 10.0 | 0.00 | 0.03 | 0.02 | 71 | 1012.7 |
| 20260904220059 | 88 | 196 | 8.0 | 10.0 | 0.00 | 0.03 | 0.02 | 73 | 1012.5 |
| 20260904214603 | 88 | 173 | 4.0 | 10.0 | 0.00 | 0.04 | 0.02 | 68 | 1012.6 |
| 20260904213059 | 87 | 141 | 6.0 | 13.0 | 0.00 | 0.04 | 0.02 | 74 | 1012.7 |
| 20260904211608 | 87 | 172 | 8.0 | 11.0 | 0.00 | 0.04 | 0.02 | 76 | 1012.8 |
| 20260904210105 | 86 | 174 | 7.0 | 12.0 | 0.00 | 0.04 | 0.02 | 78 | 1013.1 |
| 20260904204604 | 86 | 153 | 10.0 | 16.0 | 0.01 | 0.04 | 0.02 | 78 | 1013.2 |
| 20260904203105 | 86 | 169 | 14.0 | 19.0 | 0.01 | 0.04 | 0.02 | 79 | 1013.5 |
| 20260904201603 | 86 | 177 | 13.0 | 19.0 | 0.01 | 0.04 | 0.02 | 79 | 1013.6 |
| 20260904200107 | 86 | 159 | 14.0 | 17.0 | 0.01 | 0.04 | 0.02 | 76 | 1013.7 |
| 20260904194608 | 89 | 161 | 12.0 | 19.0 | 0.00 | 0.03 | 0.01 | 70 | 1013.9 |
| 20260904193125 | 93 | 171 | 1.0 | 3.0 | 0.00 | 0.03 | 0.01 | 57 | 1013.9 |
| 20260904191606 | 93 | 217 | 0.0 | 3.0 | 0.00 | 0.03 | 0.01 | 59 | 1014.3 |
| 20260904190056 | 91 | 247 | 1.0 | 4.0 | 0.00 | 0.03 | 0.01 | 60 | 1014.3 |
| 20260904184556 | 90 | 225 | 2.0 | 4.0 | 0.00 | 0.03 | 0.01 | 62 | 1014.5 |
| 20260904183101 | 89 | 259 | 1.0 | 4.0 | 0.00 | 0.03 | 0.01 | 66 | 1014.7 |
| 20260904181558 | 88 | 0 | 1.0 | 3.0 | 0.00 | 0.03 | 0.01 | 69 | 1014.9 |
| 20260904180105 | 88 | 310 | 2.0 | 3.0 | 0.00 | 0.03 | 0.01 | 70 | 1015.2 |
| 20260904174557 | 87 | 330 | 1.0 | 4.0 | 0.00 | 0.03 | 0.01 | 70 | 1015.1 |
| 20260904173100 | 87 | 323 | 3.0 | 5.0 | 0.00 | 0.03 | 0.01 | 72 | 1015.4 |
| 20260904171556 | 88 | 306 | 0.0 | 2.0 | 0.00 | 0.03 | 0.01 | 72 | 1015.5 |
| 20260904170100 | 89 | 0 | 0.0 | 2.0 | 0.00 | 0.03 | 0.01 | 72 | 1015.8 |
| 20260904164557 | 90 | 285 | 0.0 | 1.0 | 0.00 | 0.04 | 0.01 | 71 | 1015.8 |
| 20260904163054 | 89 | 0 | 0.0 | 2.0 | 0.00 | 0.04 | 0.01 | 77 | 1015.8 |
| 20260904161600 | 88 | 227 | 1.0 | 3.0 | 0.00 | 0.04 | 0.01 | 77 | 1015.8 |
| 20260904160104 | 87 | 205 | 1.0 | 3.0 | 0.00 | 0.04 | 0.01 | 79 | 1015.9 |
| 20260904154558 | 87 | 204 | 2.0 | 3.0 | 0.00 | 0.04 | 0.01 | 81 | 1015.7 |
| 20260904153101 | 85 | 211 | 3.0 | 5.0 | 0.00 | 0.04 | 0.01 | 84 | 1015.6 |
| 20260904151558 | 84 | 192 | 4.0 | 6.0 | 0.00 | 0.04 | 0.01 | 86 | 1015.5 |
| 20260904150100 | 83 | 205 | 3.0 | 6.0 | 0.00 | 0.04 | 0.01 | 88 | 1015.4 |
| 20260904144610 | 83 | 195 | 5.0 | 8.0 | 0.00 | 0.04 | 0.01 | 89 | 1015.6 |
| 20260904143100 | 82 | 180 | 4.0 | 7.0 | 0.00 | 0.04 | 0.01 | 90 | 1015.6 |
| 20260904141603 | 81 | 172 | 4.0 | 6.0 | 0.00 | 0.04 | 0.01 | 91 | 1015.3 |
| 20260904140055 | 80 | 186 | 1.0 | 5.0 | 0.00 | 0.04 | 0.01 | 94 | 1015.3 |
| 20260904134603 | 79 | 0 | 2.0 | 4.0 | 0.00 | 0.04 | 0.01 | 95 | 1015.4 |
| 20260904133110 | 78 | 100 | 1.0 | 4.0 | 0.00 | 0.04 | 0.01 | 96 | 1015.3 |
| 20260904131602 | 78 | 148 | 2.0 | 5.0 | 0.00 | 0.04 | 0.01 | 96 | 1015.2 |
| 20260904130057 | 77 | 150 | 0.0 | 2.0 | 0.00 | 0.04 | 0.01 | 96 | 1015.1 |
| 20260904124607 | 76 | 0 | 0.0 | 1.0 | 0.00 | 0.46 | 0.01 | 96 | 1014.9 |
| 20260904123059 | 76 | 0 | 0.0 | 1.0 | 0.00 | 0.46 | 0.01 | 96 | 1014.7 |
| 20260904121556 | 76 | 0 | 0.0 | 1.0 | 0.00 | 0.46 | 0.01 | 96 | 1014.5 |
| 20260904120057 | 76 | 0 | 0.0 | 4.0 | 0.01 | 0.46 | 0.01 | 96 | 1014.2 |
| 20260904114600 | 76 | 0 | 1.0 | 5.0 | 0.01 | 0.46 | 0.01 | 96 | 1014.2 |
| 20260904113058 | 76 | 117 | 2.0 | 8.0 | 0.01 | 0.46 | 0.01 | 96 | 1014.2 |
| 20260904111559 | 76 | 113 | 3.0 | 7.0 | 0.01 | 0.46 | 0.01 | 95 | 1014.1 |
| 20260904110057 | 76 | 88 | 4.0 | 7.0 | 0.00 | 0.45 | 0.00 | 95 | 1014.1 |
| 20260904104610 | 76 | 81 | 2.0 | 7.0 | 0.00 | 0.45 | 0.00 | 95 | 1014.0 |
| 20260904103101 | 76 | 91 | 2.0 | 7.0 | 0.00 | 0.45 | 0.00 | 95 | 1014.0 |
| 20260904101558 | 77 | 103 | 3.0 | 7.0 | 0.00 | 0.45 | 0.00 | 95 | 1014.0 |
| 20260904100107 | 77 | 94 | 2.0 | 6.0 | 0.00 | 0.45 | 0.00 | 95 | 1014.0 |
| 20260904094601 | 77 | 0 | 2.0 | 6.0 | 0.00 | 0.45 | 0.00 | 94 | 1014.1 |
| 20260904093104 | 77 | 93 | 1.0 | 4.0 | 0.00 | 0.45 | 0.00 | 94 | 1013.8 |
| 20260904091557 | 77 | 132 | 0.0 | 3.0 | 0.00 | 0.45 | 0.00 | 94 | 1013.7 |
| 20260904090100 | 77 | 0 | 0.0 | 2.0 | 0.00 | 0.45 | 0.00 | 94 | 1013.8 |
| 20260904084609 | 77 | 100 | 1.0 | 4.0 | 0.00 | 0.45 | 0.00 | 93 | 1013.9 |
| 20260904083109 | 78 | 98 | 1.0 | 4.0 | 0.00 | 0.45 | 0.00 | 93 | 1013.8 |
| 20260904081603 | 78 | 0 | 2.0 | 6.0 | 0.00 | 0.45 | 0.00 | 92 | 1013.9 |
| 20260904080100 | 78 | 111 | 1.0 | 4.0 | 0.00 | 0.45 | 0.00 | 92 | 1014.0 |
| 20260904074602 | 79 | 116 | 1.0 | 6.0 | 0.00 | 0.45 | 0.00 | 91 | 1013.9 |
| 20260904073050 | 80 | 135 | 2.0 | 5.0 | 0.00 | 0.45 | 0.00 | 91 | 1013.7 |
| 20260904071626 | 80 | 141 | 3.0 | 9.0 | 0.00 | 0.45 | 0.00 | 91 | 1013.7 |
| 20260904070109 | 80 | 187 | 7.0 | 10.0 | 0.00 | 0.45 | 0.00 | 91 | 1013.8 |
| 20260904064606 | 80 | 225 | 7.0 | 10.0 | 0.00 | 0.45 | 0.00 | 91 | 1013.8 |
| 20260904063100 | 80 | 220 | 7.0 | 11.0 | 0.00 | 0.45 | 0.00 | 92 | 1013.8 |
| 20260904061557 | 80 | 202 | 7.0 | 10.0 | 0.00 | 0.45 | 0.00 | 91 | 1013.8 |
| 20260904060057 | 80 | 217 | 7.0 | 11.0 | 0.00 | 0.45 | 0.00 | 91 | 1013.8 |
| 20260904054602 | 80 | 194 | 9.0 | 15.0 | 0.00 | 0.45 | 0.00 | 91 | 1013.9 |
| 20260904053109 | 80 | 188 | 8.0 | 11.0 | 0.00 | 0.45 | 0.00 | 91 | 1013.8 |
| 20260904051602 | 80 | 165 | 8.0 | 12.0 | 0.00 | 0.45 | 0.00 | 91 | 1013.7 |
| 20260904050055 | 80 | 183 | 9.0 | 12.0 | 0.01 | 0.45 | 0.00 | 91 | 1013.8 |
| 20260904044614 | 80 | 170 | 9.0 | 12.0 | 0.01 | 0.45 | 0.45 | 91 | 1014.0 |
| 20260904043101 | 80 | 139 | 4.0 | 9.0 | 0.01 | 0.45 | 0.45 | 90 | 1013.9 |
| 20260904041616 | 80 | 110 | 4.0 | 9.0 | 0.01 | 0.45 | 0.45 | 89 | 1013.9 |
| 20260904040103 | 80 | 147 | 4.0 | 8.0 | 0.00 | 0.44 | 0.44 | 89 | 1013.9 |
| 20260904034558 | 81 | 146 | 4.0 | 10.0 | 0.00 | 0.44 | 0.44 | 88 | 1013.9 |
| 20260904033059 | 81 | 150 | 5.0 | 10.0 | 0.00 | 0.44 | 0.44 | 88 | 1013.7 |
| 20260904031611 | 81 | 153 | 6.0 | 12.0 | 0.00 | 0.44 | 0.44 | 89 | 1013.8 |
| 20260904030057 | 81 | 147 | 9.0 | 12.0 | 0.00 | 0.44 | 0.44 | 89 | 1013.6 |
| 20260904024559 | 81 | 171 | 5.0 | 12.0 | 0.00 | 0.45 | 0.44 | 91 | 1013.6 |
| 20260904023053 | 80 | 136 | 5.0 | 10.0 | 0.00 | 0.45 | 0.44 | 92 | 1013.4 |